Time;durP1;ratioP1;P1;durP2;ratioP2;P2;SDS_P1;SDS_P2;PMS_P1;PMS_P2;Temp;Humidity;BMP_temperature;BMP_pressure;BME280_temperature;BME280_humidity;BME280_pressure;Samples;Min_cycle;Max_cycle;Signal;HPM_P1;HPM_P2
2023/04/20 00:00:29;;;;;;;1.90;1.02;;;20.90;27.70;;;;;;5036006;28;20051;-50
2023/04/20 00:02:55;;;;;;;1.27;0.88;;;20.90;27.70;;;;;;5052706;28;20393;-48
2023/04/20 00:05:22;;;;;;;1.38;0.88;;;20.90;27.70;;;;;;5054448;28;20044;-48
2023/04/20 00:07:48;;;;;;;1.48;0.80;;;20.90;27.70;;;;;;5057270;28;20029;-51
2023/04/20 00:10:14;;;;;;;2.15;0.80;;;20.90;27.70;;;;;;5052337;28;20040;-52
2023/04/20 00:12:41;;;;;;;3.22;0.90;;;20.90;27.60;;;;;;5052593;28;20033;-51
2023/04/20 00:15:07;;;;;;;1.23;0.80;;;20.90;27.70;;;;;;5034913;28;20044;-52
2023/04/20 00:17:33;;;;;;;4.13;1.05;;;20.90;27.60;;;;;;5052086;28;20344;-52
2023/04/20 00:19:59;;;;;;;1.88;0.80;;;20.90;27.60;;;;;;5042616;28;20044;-51
2023/04/20 00:22:27;;;;;;;1.48;0.75;;;20.90;27.70;;;;;;5034708;28;20057;-48
2023/04/20 00:24:53;;;;;;;0.88;0.63;;;20.90;27.70;;;;;;5052029;28;20029;-49
2023/04/20 00:27:18;;;;;;;1.30;0.80;;;20.90;27.70;;;;;;5053984;28;20179;-49
2023/04/20 00:29:44;;;;;;;1.05;0.73;;;20.90;27.70;;;;;;5053517;28;20055;-48
2023/04/20 00:32:10;;;;;;;2.17;0.88;;;20.90;27.70;;;;;;5054416;28;20116;-46
2023/04/20 00:34:36;;;;;;;1.20;0.60;;;20.90;27.70;;;;;;5056972;28;20036;-49
2023/04/20 00:37:02;;;;;;;1.73;0.63;;;20.90;27.70;;;;;;5056463;28;20032;-47
2023/04/20 00:39:28;;;;;;;1.95;0.52;;;20.90;27.70;;;;;;5058432;28;20029;-48
2023/04/20 00:41:53;;;;;;;2.35;1.10;;;20.90;27.70;;;;;;5056722;28;20032;-46
2023/04/20 00:44:19;;;;;;;3.50;0.80;;;20.90;27.70;;;;;;5057733;28;20032;-46
2023/04/20 00:46:45;;;;;;;1.30;0.90;;;20.90;27.70;;;;;;5056536;28;20117;-46
2023/04/20 00:49:11;;;;;;;1.48;0.80;;;20.90;27.70;;;;;;5057298;28;20029;-46
2023/04/20 00:51:37;;;;;;;1.10;0.90;;;20.90;27.70;;;;;;5058166;28;20039;-47
2023/04/20 00:54:04;;;;;;;1.10;0.70;;;20.90;27.70;;;;;;5056374;28;20032;-47
2023/04/20 00:56:30;;;;;;;0.80;0.60;;;20.90;27.70;;;;;;5056643;28;20033;-47
2023/04/20 00:58:56;;;;;;;0.82;0.68;;;20.90;27.70;;;;;;5057708;28;20043;-48
2023/04/20 01:01:22;;;;;;;1.63;0.77;;;20.90;27.70;;;;;;5058384;28;20403;-47
2023/04/20 01:03:48;;;;;;;1.77;0.80;;;20.90;27.70;;;;;;5062461;28;20029;-48
2023/04/20 01:06:14;;;;;;;0.70;0.63;;;20.90;27.70;;;;;;5052217;28;20067;-48
2023/04/20 01:08:47;;;;;;;1.02;0.90;;;20.90;27.70;;;;;;5069811;28;20033;-49
2023/04/20 01:11:13;;;;;;;1.20;0.90;;;20.90;27.70;;;;;;5037528;28;20044;-54
2023/04/20 01:13:39;;;;;;;1.08;0.85;;;20.90;27.70;;;;;;5047412;28;20025;-52
2023/04/20 01:16:05;;;;;;;1.60;1.00;;;20.90;27.80;;;;;;5060597;28;20035;-51
2023/04/20 01:18:49;;;;;;;2.00;0.70;;;20.90;27.80;;;;;;5063736;28;20025;-52
2023/04/20 01:21:18;;;;;;;1.48;0.88;;;20.90;27.80;;;;;;5057403;28;20441;-52
2023/04/20 01:23:44;;;;;;;1.35;0.85;;;20.90;27.90;;;;;;5056072;28;20033;-52
2023/04/20 01:26:13;;;;;;;1.30;0.80;;;20.90;27.90;;;;;;5056127;28;20026;-53
2023/04/20 01:28:39;;;;;;;1.38;0.90;;;20.90;27.90;;;;;;5056395;28;20448;-51
2023/04/20 01:31:06;;;;;;;1.25;0.88;;;20.90;28.00;;;;;;5057548;28;20147;-51
2023/04/20 01:33:32;;;;;;;1.13;0.80;;;20.90;28.00;;;;;;5055284;28;20053;-49
2023/04/20 01:35:58;;;;;;;0.90;0.80;;;20.80;28.00;;;;;;5056061;28;20041;-53
2023/04/20 01:38:25;;;;;;;2.08;0.90;;;20.90;28.10;;;;;;5036719;28;20041;-54
2023/04/20 01:40:52;;;;;;;2.38;0.70;;;20.90;28.10;;;;;;5047201;28;20053;-52
2023/04/20 01:43:20;;;;;;;1.13;0.77;;;20.90;28.20;;;;;;5055485;28;20444;-51
2023/04/20 01:45:46;;;;;;;1.27;0.70;;;20.90;28.20;;;;;;5055823;28;20114;-51
2023/04/20 01:48:12;;;;;;;0.90;0.50;;;20.90;28.20;;;;;;5039035;28;20041;-51
2023/04/20 01:50:38;;;;;;;1.95;1.00;;;20.90;28.30;;;;;;5036923;28;20420;-47
2023/04/20 01:53:04;;;;;;;1.65;0.77;;;20.90;28.30;;;;;;5045188;28;20036;-54
2023/04/20 01:55:29;;;;;;;1.17;0.90;;;20.80;28.30;;;;;;5056891;28;20429;-50
2023/04/20 01:57:55;;;;;;;2.50;0.90;;;20.90;28.30;;;;;;5059492;28;20024;-47
2023/04/20 02:00:22;;;;;;;1.60;0.90;;;20.90;28.40;;;;;;5055547;28;20040;-47
2023/04/20 02:02:48;;;;;;;0.90;0.70;;;20.80;28.40;;;;;;5056018;28;20337;-52
2023/04/20 02:05:14;;;;;;;1.00;0.70;;;20.80;28.40;;;;;;5039352;28;20056;-48
2023/04/20 02:07:40;;;;;;;1.23;0.70;;;20.80;28.40;;;;;;5057730;28;20024;-47
2023/04/20 02:10:06;;;;;;;1.83;0.80;;;20.80;28.50;;;;;;5067480;28;20112;-52
2023/04/20 02:12:32;;;;;;;2.10;0.57;;;20.80;28.50;;;;;;5047518;28;20088;-48
2023/04/20 02:14:58;;;;;;;1.25;0.88;;;20.80;28.50;;;;;;5056312;28;20445;-47
2023/04/20 02:17:25;;;;;;;1.40;0.80;;;20.90;28.60;;;;;;5059882;28;20024;-51
2023/04/20 02:19:50;;;;;;;0.93;0.70;;;20.80;28.60;;;;;;5076324;28;20475;-47
2023/04/20 02:22:16;;;;;;;1.38;1.00;;;20.80;28.60;;;;;;5076518;28;20021;-49
2023/04/20 02:24:42;;;;;;;1.88;0.85;;;20.80;28.60;;;;;;5059802;28;20095;-48
2023/04/20 02:27:09;;;;;;;1.40;0.80;;;20.80;28.70;;;;;;5055384;28;20112;-50
2023/04/20 02:29:35;;;;;;;1.27;0.80;;;20.80;28.70;;;;;;5055763;28;20047;-53
2023/04/20 02:32:01;;;;;;;1.30;0.80;;;20.80;28.70;;;;;;5054976;28;20029;-52
2023/04/20 02:34:27;;;;;;;0.85;0.70;;;20.80;28.70;;;;;;5054482;28;20463;-48
2023/04/20 02:36:55;;;;;;;0.88;0.70;;;20.80;28.80;;;;;;5058601;28;20453;-52
2023/04/20 02:39:21;;;;;;;1.30;0.55;;;20.80;28.80;;;;;;5056232;28;20067;-52
2023/04/20 02:41:47;;;;;;;1.35;0.70;;;20.80;28.80;;;;;;5055092;28;20428;-52
2023/04/20 02:44:13;;;;;;;1.33;0.90;;;20.80;28.80;;;;;;5055287;28;20107;-49
2023/04/20 02:46:39;;;;;;;1.05;0.77;;;20.80;28.90;;;;;;5054278;28;20021;-48
2023/04/20 02:49:05;;;;;;;2.15;0.70;;;20.80;28.90;;;;;;5053215;28;20083;-49
2023/04/20 02:51:35;;;;;;;1.42;0.90;;;20.80;28.90;;;;;;5054850;28;20040;-47
2023/04/20 02:54:01;;;;;;;2.45;1.08;;;20.80;28.90;;;;;;5054777;28;20033;-51
2023/04/20 02:56:28;;;;;;;1.65;0.90;;;20.80;29.50;;;;;;5054669;28;20029;-49
2023/04/20 02:58:58;;;;;;;1.58;0.85;;;20.80;29.10;;;;;;5053293;28;20036;-51
2023/04/20 03:01:39;;;;;;;1.23;0.85;;;20.80;29.10;;;;;;5070101;28;20079;-53
2023/04/20 03:04:11;;;;;;;1.65;1.00;;;20.80;29.20;;;;;;5075058;28;20028;-49
2023/04/20 03:06:44;;;;;;;1.35;0.70;;;20.80;29.20;;;;;;5055787;28;20082;-50
2023/04/20 03:09:14;;;;;;;1.25;0.70;;;20.80;29.20;;;;;;5048310;28;20095;-49
2023/04/20 03:11:54;;;;;;;0.88;0.70;;;20.80;29.30;;;;;;5053668;28;20056;-50
2023/04/20 03:14:40;;;;;;;1.33;0.80;;;20.80;29.30;;;;;;5042315;28;20456;-47
2023/04/20 03:17:07;;;;;;;1.63;0.82;;;20.80;29.30;;;;;;5051910;28;20032;-46
2023/04/20 03:19:34;;;;;;;1.20;0.70;;;20.80;29.30;;;;;;5074339;28;20444;-49
2023/04/20 03:22:00;;;;;;;1.48;0.80;;;20.80;29.30;;;;;;5073789;28;20028;-52
2023/04/20 03:24:25;;;;;;;1.15;0.85;;;20.80;29.30;;;;;;5059501;28;20101;-53
2023/04/20 03:26:53;;;;;;;1.02;0.90;;;20.80;29.30;;;;;;5053918;28;20021;-49
2023/04/20 03:29:30;;;;;;;1.88;0.80;;;20.80;29.30;;;;;;5039117;28;20415;-48
2023/04/20 03:31:56;;;;;;;1.48;0.80;;;20.80;29.40;;;;;;5053209;28;20332;-47
2023/04/20 03:34:22;;;;;;;1.05;0.80;;;20.80;29.40;;;;;;5053547;28;20029;-48
2023/04/20 03:36:47;;;;;;;1.33;0.80;;;20.80;29.40;;;;;;5052483;28;20029;-49
2023/04/20 03:39:13;;;;;;;1.77;0.70;;;20.80;29.40;;;;;;5053968;28;20096;-49
2023/04/20 03:41:39;;;;;;;1.60;0.70;;;20.80;29.40;;;;;;5055094;28;20436;-49
2023/04/20 03:44:05;;;;;;;1.13;0.70;;;20.80;29.50;;;;;;5054759;28;20036;-50
2023/04/20 03:46:31;;;;;;;1.88;1.08;;;20.80;29.50;;;;;;5053070;28;20023;-45
2023/04/20 03:48:57;;;;;;;1.55;0.95;;;20.70;29.50;;;;;;5051319;28;20028;-46
2023/04/20 03:51:23;;;;;;;1.33;0.70;;;20.80;29.50;;;;;;5033841;28;20068;-48
2023/04/20 03:53:49;;;;;;;1.20;0.80;;;20.70;29.50;;;;;;5034854;28;20323;-50
2023/04/20 03:56:14;;;;;;;1.00;0.65;;;20.70;29.50;;;;;;5033552;28;20481;-50
2023/04/20 03:58:41;;;;;;;1.17;0.68;;;20.80;29.50;;;;;;5049174;28;20526;-49
2023/04/20 04:01:12;;;;;;;1.25;0.88;;;20.80;29.60;;;;;;5052613;28;20051;-50
2023/04/20 04:03:42;;;;;;;2.22;1.00;;;20.80;29.60;;;;;;5055851;28;20454;-48
2023/04/20 04:06:10;;;;;;;1.60;0.80;;;20.70;29.60;;;;;;5037056;28;20033;-46
2023/04/20 04:08:36;;;;;;;1.25;0.68;;;20.80;29.60;;;;;;5055263;28;20474;-49
2023/04/20 04:11:02;;;;;;;1.42;0.70;;;20.80;29.70;;;;;;5054031;28;20095;-51
2023/04/20 04:13:28;;;;;;;0.95;0.77;;;20.70;29.60;;;;;;5059971;28;20104;-46
2023/04/20 04:15:54;;;;;;;1.48;0.80;;;20.80;29.60;;;;;;5060059;28;20074;-52
2023/04/20 04:18:21;;;;;;;1.17;0.73;;;20.80;29.60;;;;;;5066335;28;20024;-46
2023/04/20 04:20:48;;;;;;;0.90;0.73;;;20.80;29.60;;;;;;5079152;28;20076;-51
2023/04/20 04:23:14;;;;;;;1.67;0.98;;;20.70;29.60;;;;;;5059627;28;20057;-49
2023/04/20 04:26:03;;;;;;;1.10;0.90;;;20.80;29.70;;;;;;5060877;28;20529;-46
2023/04/20 04:28:31;;;;;;;1.80;0.95;;;20.70;29.70;;;;;;5059797;28;20061;-51
2023/04/20 04:31:08;;;;;;;1.40;0.60;;;20.70;29.70;;;;;;5055199;28;20112;-49
2023/04/20 04:33:34;;;;;;;0.88;0.60;;;20.70;29.70;;;;;;5050416;28;20040;-50
2023/04/20 04:36:01;;;;;;;1.58;0.80;;;20.70;29.70;;;;;;5046968;28;20111;-52
2023/04/20 04:38:28;;;;;;;0.93;0.82;;;20.70;29.70;;;;;;5068400;28;20024;-46
2023/04/20 04:40:55;;;;;;;1.25;0.75;;;20.70;29.70;;;;;;5080938;28;20037;-48
2023/04/20 04:43:21;;;;;;;2.05;1.00;;;20.70;30.20;;;;;;5080055;28;20028;-49
2023/04/20 04:45:57;;;;;;;1.63;0.85;;;20.70;29.70;;;;;;5069058;28;20049;-48
2023/04/20 04:48:23;;;;;;;0.95;0.70;;;20.70;29.70;;;;;;5062347;28;20352;-47
2023/04/20 04:50:50;;;;;;;1.50;0.70;;;20.70;29.80;;;;;;5078909;28;20028;-49
2023/04/20 04:53:16;;;;;;;3.45;0.90;;;20.70;29.80;;;;;;5079961;28;20115;-49
2023/04/20 04:55:43;;;;;;;1.02;0.73;;;20.70;29.80;;;;;;5055769;28;20046;-49
2023/04/20 04:58:09;;;;;;;1.58;0.82;;;20.70;29.80;;;;;;5046243;28;20334;-48
2023/04/20 05:00:35;;;;;;;1.60;0.63;;;20.70;29.80;;;;;;5061307;28;20091;-50
2023/04/20 05:03:01;;;;;;;0.75;0.73;;;20.70;30.40;;;;;;5057327;28;20021;-50
2023/04/20 05:05:27;;;;;;;1.35;0.90;;;20.70;29.90;;;;;;5049651;28;20413;-46
2023/04/20 05:07:52;;;;;;;1.80;0.90;;;20.70;29.90;;;;;;5052598;28;20102;-50
2023/04/20 05:10:18;;;;;;;2.28;0.70;;;20.70;29.90;;;;;;5040564;28;20037;-53
2023/04/20 05:12:44;;;;;;;1.40;0.60;;;20.70;29.90;;;;;;5042704;28;20487;-47
2023/04/20 05:15:10;;;;;;;1.02;0.70;;;20.70;29.90;;;;;;5060596;28;20036;-49
2023/04/20 05:17:36;;;;;;;1.17;0.88;;;20.70;29.90;;;;;;5060325;28;20031;-47
2023/04/20 05:20:05;;;;;;;1.30;0.80;;;20.70;29.90;;;;;;5039802;28;20029;-45
2023/04/20 05:22:31;;;;;;;4.57;1.10;;;20.70;29.90;;;;;;5037270;28;20087;-46
2023/04/20 05:24:57;;;;;;;2.13;0.93;;;20.70;29.90;;;;;;5056794;28;20025;-49
2023/04/20 05:27:23;;;;;;;1.23;0.75;;;20.70;29.90;;;;;;5057311;28;20081;-47
2023/04/20 05:29:49;;;;;;;1.73;0.90;;;20.70;29.80;;;;;;5055940;28;20423;-47
2023/04/20 05:32:15;;;;;;;1.10;0.82;;;20.70;29.90;;;;;;5043699;28;20029;-50
2023/04/20 05:34:41;;;;;;;2.17;0.88;;;20.70;29.80;;;;;;5049887;28;20031;-51
2023/04/20 05:37:08;;;;;;;1.65;0.70;;;20.70;29.80;;;;;;5056132;28;20024;-53
2023/04/20 05:39:34;;;;;;;1.83;0.90;;;20.70;29.80;;;;;;5061715;28;20052;-52
2023/04/20 05:42:00;;;;;;;1.10;0.75;;;20.70;29.90;;;;;;5056398;28;20033;-45
2023/04/20 05:44:26;;;;;;;3.00;1.00;;;20.70;29.90;;;;;;5051240;28;20053;-50
2023/04/20 05:46:52;;;;;;;3.03;0.95;;;20.60;29.80;;;;;;5057246;28;20028;-47
2023/04/20 05:49:17;;;;;;;2.33;1.08;;;20.70;29.90;;;;;;5056237;28;20459;-47
2023/04/20 05:51:43;;;;;;;2.38;0.85;;;20.70;29.90;;;;;;5059205;28;20029;-53
2023/04/20 05:54:09;;;;;;;1.80;1.10;;;20.70;29.90;;;;;;5047392;28;20052;-49
2023/04/20 05:56:35;;;;;;;3.45;1.00;;;20.70;29.90;;;;;;5060941;28;20033;-48
2023/04/20 05:59:02;;;;;;;1.92;0.98;;;20.70;29.90;;;;;;5062403;28;20120;-46
2023/04/20 06:01:27;;;;;;;2.13;0.95;;;20.70;29.90;;;;;;5056696;28;20070;-46
2023/04/20 06:03:54;;;;;;;1.73;1.00;;;20.70;30.00;;;;;;5053181;28;20379;-49
2023/04/20 06:06:20;;;;;;;1.42;0.85;;;20.70;30.00;;;;;;5067034;28;20108;-48
2023/04/20 06:08:46;;;;;;;2.05;0.85;;;20.70;30.00;;;;;;5064467;28;20056;-46
2023/04/20 06:11:12;;;;;;;2.38;0.95;;;20.70;30.00;;;;;;5064796;28;20021;-48
2023/04/20 06:13:38;;;;;;;2.13;1.02;;;20.70;30.00;;;;;;5066317;28;20364;-45
2023/04/20 06:16:08;;;;;;;4.07;1.10;;;20.70;30.00;;;;;;5056729;28;20021;-46
2023/04/20 06:18:35;;;;;;;1.83;1.00;;;20.70;30.00;;;;;;5054926;28;20033;-51
2023/04/20 06:21:01;;;;;;;2.30;0.90;;;20.70;30.00;;;;;;5055594;28;20086;-50
2023/04/20 06:23:27;;;;;;;1.98;0.90;;;20.70;30.10;;;;;;5056304;28;20103;-51
2023/04/20 06:25:53;;;;;;;1.42;0.90;;;20.70;30.10;;;;;;5052689;28;20118;-45
2023/04/20 06:28:19;;;;;;;4.57;0.95;;;20.70;30.10;;;;;;5058989;28;20032;-45
2023/04/20 06:30:45;;;;;;;1.50;1.00;;;20.70;30.10;;;;;;5055318;28;20021;-45
2023/04/20 06:33:16;;;;;;;1.27;0.88;;;20.70;30.00;;;;;;5055341;28;20044;-49
2023/04/20 06:35:42;;;;;;;1.38;0.75;;;20.80;30.00;;;;;;5054734;28;20025;-49
2023/04/20 06:38:08;;;;;;;2.40;0.90;;;20.70;30.00;;;;;;5053652;28;20470;-45
2023/04/20 06:40:34;;;;;;;2.30;1.00;;;20.80;30.00;;;;;;5055011;28;20041;-50
2023/04/20 06:43:00;;;;;;;1.70;0.98;;;20.80;30.00;;;;;;5063398;28;20055;-50
2023/04/20 06:45:26;;;;;;;1.65;1.00;;;20.80;29.90;;;;;;5061896;28;20368;-50
2023/04/20 06:47:54;;;;;;;1.65;1.10;;;20.90;29.90;;;;;;5065182;28;20364;-51
2023/04/20 06:50:20;;;;;;;3.05;1.13;;;20.90;30.00;;;;;;5044524;28;20098;-48
2023/04/20 06:52:47;;;;;;;1.63;1.08;;;20.90;30.00;;;;;;5055900;28;20119;-48
2023/04/20 06:55:14;;;;;;;3.10;1.00;;;20.90;30.00;;;;;;5055607;28;20322;-46
2023/04/20 06:57:42;;;;;;;1.63;0.90;;;21.00;30.00;;;;;;5056082;28;20036;-49
2023/04/20 07:00:10;;;;;;;1.75;1.05;;;21.00;29.90;;;;;;5075425;28;20467;-49
2023/04/20 07:02:48;;;;;;;1.27;0.85;;;21.00;29.90;;;;;;5075254;28;20484;-49
2023/04/20 07:05:16;;;;;;;2.53;1.20;;;21.10;29.80;;;;;;5060882;28;20044;-49
2023/04/20 07:07:42;;;;;;;2.10;1.10;;;21.10;29.80;;;;;;5053877;28;20037;-49
2023/04/20 07:10:10;;;;;;;1.50;0.90;;;21.10;29.80;;;;;;5053960;28;20029;-48
2023/04/20 07:12:37;;;;;;;1.52;0.95;;;21.10;29.70;;;;;;5053418;28;20047;-49
2023/04/20 07:15:04;;;;;;;1.40;0.80;;;21.10;29.70;;;;;;5062174;28;20413;-47
2023/04/20 07:17:30;;;;;;;2.03;1.00;;;21.20;29.70;;;;;;5053072;28;20029;-49
2023/04/20 07:19:57;;;;;;;2.22;1.05;;;21.20;29.70;;;;;;5054076;28;20044;-51
2023/04/20 07:22:24;;;;;;;2.40;0.98;;;21.20;29.60;;;;;;5053587;28;20025;-45
2023/04/20 07:24:50;;;;;;;1.42;0.80;;;21.20;29.60;;;;;;5053120;28;20032;-48
2023/04/20 07:27:17;;;;;;;1.55;0.80;;;21.20;29.60;;;;;;5052598;28;20029;-50
2023/04/20 07:29:42;;;;;;;1.30;0.80;;;21.20;29.60;;;;;;5051844;28;20036;-49
2023/04/20 07:32:08;;;;;;;1.30;0.93;;;21.30;29.60;;;;;;5053477;28;20024;-46
2023/04/20 07:34:34;;;;;;;0.93;0.70;;;21.30;29.60;;;;;;5054578;28;20640;-50
2023/04/20 07:37:00;;;;;;;2.45;1.27;;;21.30;29.60;;;;;;5053979;28;20043;-51
2023/04/20 07:39:27;;;;;;;1.95;0.95;;;21.30;29.50;;;;;;5052754;28;20021;-47
2023/04/20 07:41:53;;;;;;;1.23;0.85;;;21.30;29.50;;;;;;5046535;28;20090;-49
2023/04/20 07:44:19;;;;;;;1.70;0.90;;;21.30;29.50;;;;;;5052382;28;20075;-51
2023/04/20 07:46:45;;;;;;;1.60;0.88;;;21.30;29.50;;;;;;5061052;28;20040;-53
2023/04/20 07:49:11;;;;;;;1.88;1.00;;;21.30;29.50;;;;;;5055605;28;20037;-53
2023/04/20 07:51:36;;;;;;;1.42;0.93;;;21.40;29.50;;;;;;5054236;28;20033;-50
2023/04/20 07:54:02;;;;;;;1.38;0.98;;;21.40;29.50;;;;;;5053720;28;20100;-50
2023/04/20 07:56:30;;;;;;;2.53;1.35;;;21.40;29.40;;;;;;5054680;28;20025;-49
2023/04/20 07:58:56;;;;;;;1.75;0.88;;;21.40;29.40;;;;;;5054683;28;20057;-50
2023/04/20 08:01:24;;;;;;;1.35;0.82;;;21.40;29.40;;;;;;5055867;28;20190;-49
2023/04/20 08:03:50;;;;;;;1.55;0.90;;;21.40;29.40;;;;;;5073386;28;20337;-46
2023/04/20 08:06:16;;;;;;;1.65;0.90;;;21.40;29.40;;;;;;5074697;28;20028;-49
2023/04/20 08:08:42;;;;;;;1.70;1.08;;;21.50;29.40;;;;;;5072233;28;20043;-48
2023/04/20 08:11:08;;;;;;;1.58;0.90;;;21.50;29.40;;;;;;5075132;28;20094;-51
2023/04/20 08:13:36;;;;;;;1.35;0.90;;;21.40;29.30;;;;;;5064669;28;20040;-47
2023/04/20 08:16:01;;;;;;;1.27;0.88;;;21.50;29.40;;;;;;5054679;28;20347;-50
2023/04/20 08:18:29;;;;;;;2.47;1.05;;;21.50;29.40;;;;;;5065565;28;20025;-46
2023/04/20 08:20:55;;;;;;;2.40;1.20;;;21.50;29.30;;;;;;5069462;28;20490;-52
2023/04/20 08:23:26;;;;;;;1.17;0.80;;;21.50;29.30;;;;;;5074741;28;20078;-46
2023/04/20 08:25:55;;;;;;;1.25;0.80;;;21.50;29.30;;;;;;5075052;28;20033;-48
2023/04/20 08:28:22;;;;;;;1.80;1.00;;;21.50;29.30;;;;;;5074788;28;20043;-47
2023/04/20 08:30:48;;;;;;;1.77;1.00;;;21.50;29.30;;;;;;5074680;28;20336;-47
2023/04/20 08:33:14;;;;;;;1.60;0.90;;;21.50;29.40;;;;;;5075029;28;20032;-50
2023/04/20 08:35:40;;;;;;;1.10;0.75;;;21.40;29.30;;;;;;5070271;28;20034;-51
2023/04/20 08:38:06;;;;;;;1.52;0.90;;;21.40;29.40;;;;;;5074671;28;20024;-49
2023/04/20 08:40:32;;;;;;;3.28;1.00;;;21.40;29.40;;;;;;5063042;28;20048;-49
2023/04/20 08:42:58;;;;;;;1.90;0.98;;;21.40;29.40;;;;;;5054412;28;20064;-51
2023/04/20 08:45:25;;;;;;;1.17;0.95;;;21.40;29.40;;;;;;5054116;28;20136;-48
2023/04/20 08:47:52;;;;;;;2.00;0.98;;;21.40;29.40;;;;;;5054864;28;20102;-48
2023/04/20 08:50:19;;;;;;;2.78;1.25;;;21.50;29.40;;;;;;5053463;28;20091;-51
2023/04/20 08:52:45;;;;;;;1.48;1.00;;;21.40;29.40;;;;;;5056772;28;20033;-51
2023/04/20 08:55:18;;;;;;;1.13;0.73;;;21.40;29.40;;;;;;5058166;28;20025;-47
2023/04/20 08:57:46;;;;;;;2.63;1.02;;;21.40;29.40;;;;;;5056682;28;20051;-47
2023/04/20 09:00:13;;;;;;;1.35;0.85;;;21.40;29.40;;;;;;5055608;28;20044;-49
2023/04/20 09:02:53;;;;;;;1.52;0.90;;;21.40;29.40;;;;;;5057844;28;20033;-52
2023/04/20 09:05:28;;;;;;;1.63;0.95;;;21.40;29.40;;;;;;5063158;28;20032;-50
2023/04/20 09:07:57;;;;;;;1.65;0.90;;;21.50;29.50;;;;;;5074888;28;20037;-47
2023/04/20 09:10:25;;;;;;;0.85;0.82;;;21.40;29.40;;;;;;5077824;28;20352;-48
2023/04/20 09:12:51;;;;;;;1.50;0.90;;;21.50;29.50;;;;;;5073766;28;20017;-48
2023/04/20 09:15:28;;;;;;;2.03;0.90;;;21.40;29.50;;;;;;5057036;28;20079;-51
2023/04/20 09:17:54;;;;;;;1.35;0.80;;;21.40;29.50;;;;;;5064899;28;20475;-48
2023/04/20 09:20:46;;;;;;;1.52;0.90;;;21.40;29.50;;;;;;5077257;28;20355;-50
2023/04/20 09:23:14;;;;;;;1.35;0.90;;;21.40;29.50;;;;;;5076181;28;20048;-48
2023/04/20 09:25:42;;;;;;;1.42;0.70;;;21.40;29.50;;;;;;5074839;28;20029;-50
2023/04/20 09:28:08;;;;;;;1.92;0.90;;;21.40;29.60;;;;;;5077560;28;20467;-48
2023/04/20 09:30:44;;;;;;;1.45;0.80;;;21.40;29.50;;;;;;5077228;28;20507;-48
2023/04/20 09:33:11;;;;;;;1.00;0.80;;;21.40;29.60;;;;;;5077396;28;20101;-52
2023/04/20 09:35:39;;;;;;;1.88;1.00;;;21.40;29.60;;;;;;5077529;28;20107;-48
2023/04/20 09:38:06;;;;;;;2.17;0.88;;;21.40;29.60;;;;;;5058381;28;20158;-49
2023/04/20 09:40:33;;;;;;;1.85;0.80;;;21.40;29.60;;;;;;5056398;28;20029;-49
2023/04/20 09:43:05;;;;;;;1.80;1.05;;;21.40;29.60;;;;;;5062443;28;20036;-50
2023/04/20 09:45:31;;;;;;;0.90;0.68;;;21.40;29.60;;;;;;5073678;28;20060;-48
2023/04/20 09:47:58;;;;;;;1.02;0.80;;;21.40;29.60;;;;;;5067741;28;20104;-52
2023/04/20 09:50:24;;;;;;;2.28;0.88;;;21.40;29.60;;;;;;5057052;28;20344;-49
2023/04/20 09:52:51;;;;;;;1.27;0.88;;;21.40;29.70;;;;;;5056466;28;20400;-50
2023/04/20 09:55:17;;;;;;;1.10;0.88;;;21.40;29.60;;;;;;5064945;28;20044;-46
2023/04/20 09:57:44;;;;;;;2.28;1.00;;;21.40;29.60;;;;;;5077060;28;20107;-54
2023/04/20 10:00:11;;;;;;;1.85;0.82;;;21.40;29.70;;;;;;5076948;28;20036;-51
2023/04/20 10:02:38;;;;;;;1.08;0.70;;;21.40;29.60;;;;;;5073397;28;20029;-51
2023/04/20 10:05:06;;;;;;;2.55;0.70;;;21.40;29.70;;;;;;5055837;28;20028;-49
2023/04/20 10:07:33;;;;;;;1.10;0.77;;;21.40;29.60;;;;;;5060378;28;20033;-51
2023/04/20 10:10:09;;;;;;;0.65;0.60;;;21.40;29.60;;;;;;5074110;28;20112;-46
2023/04/20 10:12:52;;;;;;;1.42;0.82;;;21.40;29.60;;;;;;5051606;28;20415;-48
2023/04/20 10:15:20;;;;;;;1.38;0.80;;;21.50;29.60;;;;;;5043456;28;20044;-49
2023/04/20 10:17:47;;;;;;;2.65;0.80;;;21.40;29.60;;;;;;5049706;28;20047;-47
2023/04/20 10:20:25;;;;;;;1.10;0.80;;;21.40;29.60;;;;;;5056588;28;20064;-51
2023/04/20 10:22:52;;;;;;;1.40;0.90;;;21.40;29.60;;;;;;5055900;28;20041;-48
2023/04/20 10:25:21;;;;;;;1.08;0.77;;;21.40;29.60;;;;;;5056167;28;20032;-53
2023/04/20 10:27:52;;;;;;;1.58;0.88;;;21.40;29.60;;;;;;5056067;28;20391;-53
2023/04/20 10:30:20;;;;;;;1.10;0.70;;;21.40;29.50;;;;;;5056436;28;20033;-51
2023/04/20 10:32:46;;;;;;;1.52;0.85;;;21.40;29.50;;;;;;5059770;28;20100;-51
2023/04/20 10:35:13;;;;;;;1.88;1.20;;;21.40;29.50;;;;;;5065285;28;20043;-51
2023/04/20 10:37:51;;;;;;;2.38;0.77;;;21.40;29.50;;;;;;5055634;28;20082;-50
2023/04/20 10:40:25;;;;;;;0.98;0.82;;;21.40;29.50;;;;;;5056763;28;20048;-45
2023/04/20 10:42:51;;;;;;;;;;;21.40;29.50;;;;;;5068184;28;20463;-49
2023/04/20 10:45:17;;;;;;;2.47;0.80;;;21.40;29.70;;;;;;5061462;28;19920;-51
2023/04/20 10:47:44;;;;;;;2.05;1.00;;;21.40;29.70;;;;;;5055180;28;20025;-47
2023/04/20 10:50:12;;;;;;;2.13;0.80;;;21.40;29.70;;;;;;5058007;28;20020;-48
2023/04/20 10:52:40;;;;;;;1.00;0.80;;;21.40;29.70;;;;;;5039455;28;20052;-50
2023/04/20 10:55:17;;;;;;;1.95;0.93;;;21.40;30.10;;;;;;5053831;28;20116;-47
2023/04/20 10:57:45;;;;;;;1.27;0.70;;;21.40;29.70;;;;;;5055949;28;20029;-48
2023/04/20 11:00:21;;;;;;;2.28;0.95;;;21.50;29.70;;;;;;5048002;28;20048;-49
2023/04/20 11:02:49;;;;;;;1.60;0.90;;;21.50;29.70;;;;;;5041180;28;20044;-50
2023/04/20 11:05:15;;;;;;;2.42;0.70;;;21.50;29.70;;;;;;5047410;28;20041;-49
2023/04/20 11:07:51;;;;;;;0.90;0.60;;;21.50;29.60;;;;;;5049407;28;20021;-46
2023/04/20 11:10:17;;;;;;;1.75;0.80;;;21.40;29.60;;;;;;5045072;28;20389;-48
2023/04/20 11:12:47;;;;;;;1.33;0.90;;;21.40;29.60;;;;;;5049174;28;20025;-50
2023/04/20 11:15:15;;;;;;;1.13;0.70;;;21.40;29.50;;;;;;5050581;28;20166;-51
2023/04/20 11:17:41;;;;;;;1.10;0.70;;;21.50;29.60;;;;;;5040385;28;20440;-47
2023/04/20 11:20:12;;;;;;;1.02;0.70;;;21.50;29.60;;;;;;5042764;28;20040;-48
2023/04/20 11:22:39;;;;;;;1.05;0.90;;;21.50;29.50;;;;;;5036520;28;20037;-53
2023/04/20 11:25:07;;;;;;;1.02;0.75;;;21.40;29.50;;;;;;5046778;28;20033;-51
2023/04/20 11:27:34;;;;;;;1.85;1.08;;;21.40;29.50;;;;;;5033359;28;20033;-50
2023/04/20 11:30:10;;;;;;;1.85;0.70;;;21.40;29.50;;;;;;5037388;28;20036;-54
2023/04/20 11:32:36;;;;;;;1.98;0.70;;;21.50;29.60;;;;;;5034371;28;20357;-53
2023/04/20 11:35:08;;;;;;;1.17;0.82;;;21.50;29.70;;;;;;5038705;28;20029;-53
2023/04/20 11:37:46;;;;;;;1.40;0.90;;;21.40;29.90;;;;;;5032920;28;20392;-48
2023/04/20 11:40:13;;;;;;;0.73;0.73;;;21.40;30.10;;;;;;5041661;28;20045;-53
2023/04/20 11:42:39;;;;;;;1.38;1.00;;;21.40;30.30;;;;;;5046229;28;20032;-54
2023/04/20 11:45:06;;;;;;;1.10;0.90;;;21.40;30.40;;;;;;5042109;28;20051;-52
2023/04/20 11:47:31;;;;;;;1.10;0.80;;;21.40;31.10;;;;;;5038470;28;20033;-48
2023/04/20 11:49:57;;;;;;;0.98;0.70;;;21.40;30.60;;;;;;5042028;28;20029;-51
2023/04/20 11:52:23;;;;;;;0.90;0.80;;;21.50;30.60;;;;;;5033986;28;20034;-54
2023/04/20 11:54:49;;;;;;;3.95;0.90;;;21.40;30.80;;;;;;5038194;28;20048;-51
2023/04/20 11:57:15;;;;;;;1.13;0.77;;;21.50;30.70;;;;;;5039642;28;20063;-50
2023/04/20 11:59:47;;;;;;;1.05;0.82;;;21.40;30.70;;;;;;5042734;28;20058;-54
2023/04/20 12:02:14;;;;;;;1.13;0.75;;;21.40;30.70;;;;;;5036654;28;20037;-49
2023/04/20 12:04:40;;;;;;;0.95;0.80;;;21.50;30.70;;;;;;5041743;28;20024;-50
2023/04/20 12:07:06;;;;;;;1.40;0.90;;;21.50;30.70;;;;;;5039990;28;20506;-48
2023/04/20 12:09:37;;;;;;;1.42;0.77;;;21.40;30.60;;;;;;5042610;28;20017;-53
2023/04/20 12:12:07;;;;;;;1.00;0.63;;;21.50;30.70;;;;;;5037588;28;20049;-55
2023/04/20 12:14:33;;;;;;;1.88;1.00;;;21.40;31.40;;;;;;5038062;28;20033;-53
2023/04/20 12:17:03;;;;;;;1.10;0.80;;;21.40;30.80;;;;;;5036579;28;20408;-54
2023/04/20 12:19:29;;;;;;;2.38;1.00;;;21.40;30.80;;;;;;5039225;28;20112;-47
2023/04/20 12:21:56;;;;;;;2.88;1.80;;;21.40;30.80;;;;;;5040744;28;20144;-53
2023/04/20 12:24:22;;;;;;;1.60;0.90;;;21.40;30.80;;;;;;5036611;28;20025;-49
2023/04/20 12:26:48;;;;;;;1.50;0.90;;;21.40;30.80;;;;;;5034074;28;20040;-51
2023/04/20 12:29:15;;;;;;;1.00;0.88;;;21.40;30.80;;;;;;5041580;28;20411;-51
2023/04/20 12:31:41;;;;;;;1.95;0.88;;;21.40;30.80;;;;;;5041371;28;20025;-51
2023/04/20 12:34:06;;;;;;;1.20;0.85;;;21.50;30.80;;;;;;5042363;28;20030;-49
2023/04/20 12:36:33;;;;;;;0.90;0.75;;;21.50;30.80;;;;;;5042661;28;20029;-51
2023/04/20 12:39:00;;;;;;;1.23;0.98;;;21.40;30.70;;;;;;5042039;28;20026;-50
2023/04/20 12:41:26;;;;;;;1.63;1.15;;;21.50;30.80;;;;;;5039182;28;20037;-50
2023/04/20 12:43:52;;;;;;;1.38;0.95;;;21.50;30.90;;;;;;5042566;28;20041;-54
2023/04/20 12:46:19;;;;;;;0.95;0.63;;;21.40;30.90;;;;;;5046717;28;20047;-52
2023/04/20 12:48:44;;;;;;;1.10;0.80;;;21.40;30.90;;;;;;5044225;28;20033;-48